Time;durP1;ratioP1;P1;durP2;ratioP2;P2;SDS_P1;SDS_P2;PMS_P1;PMS_P2;Temp;Humidity;BMP_temperature;BMP_pressure;BME280_temperature;BME280_humidity;BME280_pressure;Samples;Min_cycle;Max_cycle;Signal;HPM_P1;HPM_P2
2021/10/12 00:00:44;;;;;;;34.58;19.85;;;;;;;13.35;90.15;99366.00;5070017;28;20101;-38
2021/10/12 00:03:09;;;;;;;35.20;19.58;;;;;;;13.26;90.43;99365.47;5050334;28;20029;-38
2021/10/12 00:05:35;;;;;;;38.58;20.08;;;;;;;13.26;91.47;99371.63;5050194;28;20443;-39
2021/10/12 00:08:00;;;;;;;41.00;22.05;;;;;;;13.84;89.54;99369.22;5050311;28;20029;-39
2021/10/12 00:10:26;;;;;;;37.97;21.05;;;;;;;13.67;89.39;99358.44;5050952;28;20430;-39
2021/10/12 00:12:51;;;;;;;39.17;20.52;;;;;;;13.47;89.69;99353.44;5051181;28;20036;-39
2021/10/12 00:15:17;;;;;;;35.75;19.60;;;;;;;13.29;89.76;99354.34;5051641;28;20120;-38
2021/10/12 00:17:42;;;;;;;33.90;19.20;;;;;;;13.25;91.11;99351.31;5051299;28;20343;-38
2021/10/12 00:20:08;;;;;;;40.25;20.55;;;;;;;13.27;92.31;99351.88;5051455;28;20094;-39
2021/10/12 00:22:34;;;;;;;38.92;20.50;;;;;;;14.20;87.42;99336.03;5051279;28;20147;-39
2021/10/12 00:25:00;;;;;;;34.53;19.65;;;;;;;13.59;88.33;99311.47;5051272;28;20052;-40
2021/10/12 00:27:25;;;;;;;33.38;18.90;;;;;;;13.28;89.13;99297.38;5051102;28;20051;-40
2021/10/12 00:29:51;;;;;;;32.28;18.85;;;;;;;13.03;90.64;99296.78;5050843;28;20029;-46
2021/10/12 00:32:17;;;;;;;34.45;18.92;;;;;;;12.98;91.73;99313.50;5051344;28;20414;-42
2021/10/12 00:34:42;;;;;;;35.75;19.58;;;;;;;13.59;90.81;99337.41;5051125;28;20115;-44
2021/10/12 00:37:08;;;;;;;36.15;18.95;;;;;;;13.74;88.28;99344.94;5050720;28;20028;-46
2021/10/12 00:39:33;;;;;;;41.05;19.88;;;;;;;13.46;90.05;99341.94;5051175;28;20330;-45
2021/10/12 00:41:59;;;;;;;38.42;20.27;;;;;;;13.16;91.16;99333.19;5051111;28;20013;-46
2021/10/12 00:44:25;;;;;;;37.20;20.48;;;;;;;13.17;92.02;99330.25;5050962;28;20029;-42
2021/10/12 00:46:52;;;;;;;41.42;20.38;;;;;;;13.23;92.58;99323.16;5050617;28;20025;-40
2021/10/12 00:49:18;;;;;;;47.85;22.98;;;;;;;13.93;89.90;99319.69;5051164;28;20226;-40
2021/10/12 00:51:44;;;;;;;39.88;20.15;;;;;;;13.37;89.97;99316.59;5050556;28;20615;-41
2021/10/12 00:54:09;;;;;;;34.22;18.63;;;;;;;13.11;91.43;99309.81;5070583;28;20134;-38
2021/10/12 00:56:35;;;;;;;33.47;17.48;;;;;;;13.06;91.83;99307.00;5070563;28;20499;-39
2021/10/12 00:59:01;;;;;;;32.85;18.05;;;;;;;12.98;93.05;99304.69;5070797;28;20027;-38
2021/10/12 01:01:27;;;;;;;35.88;18.30;;;;;;;13.72;90.94;99307.75;5062376;28;20434;-38
2021/10/12 01:03:52;;;;;;;36.75;18.88;;;;;;;13.83;88.61;99306.09;5051183;28;20029;-38
2021/10/12 01:06:18;;;;;;;32.63;18.17;;;;;;;13.33;90.66;99302.06;5050993;28;20029;-38
2021/10/12 01:08:43;;;;;;;34.30;17.50;;;;;;;12.98;92.14;99297.47;5051139;28;20451;-41
2021/10/12 01:11:09;;;;;;;32.67;17.67;;;;;;;13.03;92.86;99273.56;5051243;28;20342;-43
2021/10/12 01:13:34;;;;;;;37.65;19.20;;;;;;;13.32;93.55;99278.25;5049485;28;20028;-46
2021/10/12 01:16:01;;;;;;;42.25;19.83;;;;;;;13.79;90.86;99275.53;5049673;28;20051;-43
2021/10/12 01:18:27;;;;;;;36.15;17.52;;;;;;;13.44;91.10;99265.69;5051346;28;20025;-44
2021/10/12 01:20:53;;;;;;;30.38;16.52;;;;;;;13.26;90.29;99259.41;5051177;28;20094;-44
2021/10/12 01:23:18;;;;;;;32.58;17.55;;;;;;;13.16;91.56;99253.03;5051189;28;20485;-42
2021/10/12 01:25:44;;;;;;;31.80;16.90;;;;;;;13.06;91.73;99258.91;5050906;28;20507;-42
2021/10/12 01:28:09;;;;;;;37.28;18.15;;;;;;;13.93;89.49;99258.16;5050860;28;20025;-41
2021/10/12 01:30:37;;;;;;;35.63;17.45;;;;;;;13.73;88.94;99269.28;5050810;28;20048;-46
2021/10/12 01:33:02;;;;;;;32.70;16.83;;;;;;;13.15;90.55;99256.72;5050465;28;20417;-42
2021/10/12 01:35:28;;;;;;;31.58;17.20;;;;;;;12.99;92.06;99247.56;5050715;28;20043;-43
2021/10/12 01:37:53;;;;;;;30.45;16.45;;;;;;;12.87;93.38;99252.88;5050732;28;20056;-41
2021/10/12 01:40:19;;;;;;;33.53;17.67;;;;;;;13.01;94.54;99248.13;5051168;28;20021;-41
2021/10/12 01:42:45;;;;;;;35.72;18.58;;;;;;;13.98;89.97;99241.41;5050211;28;20416;-40
2021/10/12 01:45:10;;;;;;;31.65;17.38;;;;;;;13.23;91.82;99248.34;5050972;28;20095;-40
2021/10/12 01:47:37;;;;;;;32.10;17.75;;;;;;;12.95;92.83;99246.41;5051023;28;20020;-40
2021/10/12 01:50:04;;;;;;;33.72;17.75;;;;;;;12.90;94.00;99255.09;5049489;28;20029;-40
2021/10/12 01:52:29;;;;;;;36.70;18.58;;;;;;;13.01;93.25;99253.47;5050595;28;20100;-40
2021/10/12 01:54:54;;;;;;;39.13;19.50;;;;;;;13.77;91.36;99243.69;5050203;28;20032;-40
2021/10/12 01:57:20;;;;;;;36.28;18.67;;;;;;;13.79;89.54;99238.09;5050672;28;20021;-40
2021/10/12 01:59:46;;;;;;;34.67;17.58;;;;;;;13.51;89.80;99239.66;5050616;28;20310;-40
2021/10/12 02:02:11;;;;;;;29.92;17.40;;;;;;;13.00;91.13;99239.28;5050246;28;20545;-39
2021/10/12 02:04:37;;;;;;;32.55;17.08;;;;;;;13.07;92.70;99247.19;5050260;28;20033;-39
2021/10/12 02:07:02;;;;;;;32.70;17.83;;;;;;;13.11;93.77;99238.47;5050466;28;20041;-39
2021/10/12 02:09:29;;;;;;;43.72;20.17;;;;;;;14.03;89.82;99228.94;5050308;28;20499;-39
2021/10/12 02:11:54;;;;;;;33.90;17.48;;;;;;;13.31;90.88;99240.03;5050134;28;20075;-39
2021/10/12 02:14:20;;;;;;;33.42;16.83;;;;;;;13.03;91.99;99244.19;5050294;28;20029;-40
2021/10/12 02:16:45;;;;;;;30.02;16.17;;;;;;;12.86;92.12;99230.69;5050528;28;20021;-39
2021/10/12 02:19:11;;;;;;;31.73;16.83;;;;;;;12.70;94.35;99226.03;5050137;28;20024;-40
2021/10/12 02:21:37;;;;;;;34.25;18.08;;;;;;;13.40;93.51;99222.59;5050256;28;20433;-39
2021/10/12 02:24:02;;;;;;;32.20;17.27;;;;;;;13.44;90.69;99215.75;5050189;28;20030;-39
2021/10/12 02:26:28;;;;;;;39.10;20.10;;;;;;;13.22;91.54;99218.16;5050025;28;20032;-39
2021/10/12 02:28:53;;;;;;;39.80;19.13;;;;;;;13.28;91.71;99213.75;5050237;28;20032;-39
2021/10/12 02:31:19;;;;;;;33.22;17.48;;;;;;;12.99;92.58;99199.47;5049730;28;20045;-39
2021/10/12 02:33:44;;;;;;;32.78;16.65;;;;;;;12.94;93.22;99188.69;5050001;28;20029;-39
2021/10/12 02:36:10;;;;;;;36.00;18.17;;;;;;;13.74;90.35;99185.31;5050018;28;20434;-38
2021/10/12 02:38:35;;;;;;;33.53;17.15;;;;;;;13.54;89.77;99175.03;5049997;28;20025;-38
2021/10/12 02:41:01;;;;;;;28.50;16.08;;;;;;;13.15;91.21;99176.59;5050168;28;20440;-38
2021/10/12 02:43:26;;;;;;;27.65;16.20;;;;;;;12.94;92.07;99176.13;5049934;28;20080;-38
2021/10/12 02:45:52;;;;;;;34.97;17.33;;;;;;;13.13;92.40;99178.69;5049674;28;20021;-39
2021/10/12 02:48:17;;;;;;;31.73;16.38;;;;;;;12.88;92.75;99164.50;5050189;28;20385;-39
2021/10/12 02:50:43;;;;;;;36.67;18.45;;;;;;;13.82;89.89;99160.06;5048372;28;20087;-39
2021/10/12 02:53:11;;;;;;;34.13;17.10;;;;;;;13.27;90.74;99146.13;5057825;28;20103;-39
2021/10/12 02:55:37;;;;;;;32.15;17.17;;;;;;;12.94;91.69;99146.75;5031839;28;20079;-39
2021/10/12 02:58:03;;;;;;;32.45;17.27;;;;;;;12.90;91.78;99138.38;5049182;28;20029;-39
2021/10/12 03:00:28;;;;;;;33.80;17.20;;;;;;;12.98;93.23;99157.78;5050801;28;20124;-39
2021/10/12 03:02:54;;;;;;;35.83;17.10;;;;;;;13.76;89.82;99161.00;5053512;28;20017;-39
2021/10/12 03:05:19;;;;;;;29.77;17.17;;;;;;;13.44;89.28;99161.44;5053476;28;20028;-39
2021/10/12 03:07:45;;;;;;;34.33;17.50;;;;;;;13.25;91.25;99168.78;5053440;28;20132;-39
2021/10/12 03:10:10;;;;;;;35.25;18.60;;;;;;;13.13;90.61;99176.81;5053495;28;20025;-39
2021/10/12 03:12:36;;;;;;;38.67;19.23;;;;;;;13.19;90.76;99177.75;5053471;28;20020;-42
2021/10/12 03:15:01;;;;;;;44.50;20.27;;;;;;;13.29;92.44;99170.75;5053525;28;20032;-39
2021/10/12 03:17:27;;;;;;;44.28;19.90;;;;;;;13.93;90.69;99161.88;5052066;28;20078;-40
2021/10/12 03:19:52;;;;;;;33.80;18.13;;;;;;;13.32;91.00;99160.69;5053387;28;20027;-40
2021/10/12 03:22:18;;;;;;;30.17;16.25;;;;;;;13.06;91.92;99160.91;5053132;28;20024;-40
2021/10/12 03:24:43;;;;;;;33.85;17.40;;;;;;;13.04;92.45;99156.84;5053239;28;20052;-40
2021/10/12 03:27:10;;;;;;;34.47;16.90;;;;;;;13.01;92.30;99149.31;5053339;28;20078;-40
2021/10/12 03:29:36;;;;;;;39.53;19.25;;;;;;;13.80;90.40;99141.59;5052198;28;20048;-40
2021/10/12 03:32:01;;;;;;;33.17;17.23;;;;;;;13.48;89.61;99139.38;5053003;28;20037;-40
2021/10/12 03:34:27;;;;;;;31.90;16.02;;;;;;;13.01;91.24;99141.31;5052972;28;20556;-39
2021/10/12 03:36:54;;;;;;;28.95;15.98;;;;;;;12.71;93.00;99139.56;5053631;28;20032;-39
2021/10/12 03:39:20;;;;;;;31.23;16.52;;;;;;;12.68;94.22;99130.16;5053080;28;20025;-39
2021/10/12 03:41:46;;;;;;;32.38;17.67;;;;;;;13.49;91.78;99121.47;5053024;28;20040;-39
2021/10/12 03:44:11;;;;;;;34.00;17.02;;;;;;;13.54;90.73;99123.44;5053092;28;20504;-39
2021/10/12 03:46:36;;;;;;;32.10;16.58;;;;;;;13.42;89.60;99118.13;5052781;28;20025;-39
2021/10/12 03:49:02;;;;;;;29.70;15.80;;;;;;;12.96;91.92;99117.16;5053004;28;20028;-39
2021/10/12 03:51:27;;;;;;;28.70;15.10;;;;;;;12.75;93.33;99114.03;5052623;28;20021;-39
2021/10/12 03:53:53;;;;;;;28.80;15.25;;;;;;;12.79;94.07;99112.50;5052535;28;20028;-39
2021/10/12 03:56:18;;;;;;;39.90;22.13;;;;;;;13.63;91.78;99119.31;5052537;28;20350;-42
2021/10/12 03:58:44;;;;;;;100.15;52.67;;;;;;;13.49;90.27;99116.13;5053014;28;20028;-40
2021/10/12 04:01:09;;;;;;;91.97;51.35;;;;;;;13.21;91.63;99107.00;5051158;28;20017;-39
2021/10/12 04:03:35;;;;;;;76.20;40.47;;;;;;;12.81;93.06;99117.63;5051434;28;20082;-39
2021/10/12 04:06:00;;;;;;;66.60;35.63;;;;;;;12.80;94.44;99118.69;5051264;28;20021;-40
2021/10/12 04:08:25;;;;;;;37.67;20.10;;;;;;;13.04;94.57;99133.63;5050775;28;20378;-39
2021/10/12 04:10:53;;;;;;;47.53;20.20;;;;;;;14.05;90.91;99127.88;5051021;28;20028;-39
2021/10/12 04:13:19;;;;;;;33.88;17.30;;;;;;;13.47;90.29;99126.25;5050186;28;20025;-39
2021/10/12 04:15:44;;;;;;;29.63;16.27;;;;;;;13.14;91.74;99125.03;5051396;28;20025;-39
2021/10/12 04:18:10;;;;;;;28.80;16.15;;;;;;;13.07;92.57;99125.13;5050963;28;20048;-39
2021/10/12 04:20:35;;;;;;;35.33;17.83;;;;;;;13.30;93.00;99121.63;5051234;28;20017;-39
2021/10/12 04:23:02;;;;;;;32.00;17.38;;;;;;;14.12;89.09;99111.66;5051417;28;20028;-39
2021/10/12 04:25:28;;;;;;;25.60;14.75;;;;;;;13.52;89.61;99109.47;5051462;28;20103;-40
2021/10/12 04:27:53;;;;;;;25.90;15.23;;;;;;;13.28;90.11;99098.84;5051170;28;20025;-38
2021/10/12 04:30:19;;;;;;;28.00;15.77;;;;;;;13.32;89.73;99107.25;5050951;28;20060;-39
2021/10/12 04:32:44;;;;;;;30.27;16.30;;;;;;;13.01;92.02;99119.94;5050868;28;20444;-39
2021/10/12 04:35:10;;;;;;;25.10;14.95;;;;;;;12.84;92.98;99134.00;5051380;28;20029;-39
2021/10/12 04:37:35;;;;;;;26.75;15.27;;;;;;;13.38;92.60;99123.13;5051326;28;20025;-39
2021/10/12 04:40:01;;;;;;;24.05;14.35;;;;;;;13.52;90.25;99128.19;5050995;28;20539;-39
2021/10/12 04:42:26;;;;;;;25.35;14.35;;;;;;;13.05;91.91;99135.25;5050902;28;20036;-39
2021/10/12 04:44:54;;;;;;;23.13;14.07;;;;;;;12.89;92.03;99144.78;5049654;28;20021;-39
2021/10/12 04:47:20;;;;;;;26.25;14.85;;;;;;;12.89;92.92;99128.78;5051617;28;20400;-39
2021/10/12 04:49:47;;;;;;;26.15;15.43;;;;;;;13.29;92.94;99125.34;5051017;28;20100;-39
2021/10/12 04:52:12;;;;;;;28.73;15.77;;;;;;;13.83;89.28;99122.38;5050431;28;20105;-39
2021/10/12 04:54:38;;;;;;;26.23;15.30;;;;;;;13.27;91.80;99114.06;5050494;28;20033;-39
2021/10/12 04:57:03;;;;;;;25.08;15.13;;;;;;;13.23;91.64;99104.91;5050560;28;20430;-39
2021/10/12 04:59:29;;;;;;;27.98;15.23;;;;;;;13.07;92.48;99110.97;5050790;28;20114;-39
2021/10/12 05:01:54;;;;;;;27.08;14.88;;;;;;;13.07;92.64;99102.97;5050579;28;20432;-39
2021/10/12 05:04:20;;;;;;;29.48;16.45;;;;;;;13.91;90.59;99099.78;5050481;28;20032;-39
2021/10/12 05:06:45;;;;;;;30.55;16.10;;;;;;;13.65;90.40;99098.50;5050243;28;20473;-40
2021/10/12 05:09:11;;;;;;;41.88;25.40;;;;;;;13.10;92.85;99092.63;5050547;28;20036;-39
2021/10/12 05:11:36;;;;;;;129.85;74.20;;;;;;;12.96;93.24;99099.25;5050328;28;20103;-39
2021/10/12 05:14:02;;;;;;;67.03;39.72;;;;;;;13.00;93.36;99099.59;5049354;28;20059;-40
2021/10/12 05:16:29;;;;;;;57.70;34.55;;;;;;;13.45;93.14;99090.94;5049905;28;20048;-39
2021/10/12 05:18:57;;;;;;;36.92;21.00;;;;;;;13.85;89.93;99084.72;5050279;28;20461;-39
2021/10/12 05:21:23;;;;;;;35.35;19.20;;;;;;;13.51;90.94;99073.94;5042253;28;20445;-39
2021/10/12 05:23:48;;;;;;;27.52;15.80;;;;;;;13.15;91.86;99085.75;5047057;28;20098;-39
2021/10/12 05:26:14;;;;;;;26.98;15.38;;;;;;;13.15;92.42;99086.56;5050292;28;20031;-39
2021/10/12 05:28:39;;;;;;;29.80;16.42;;;;;;;13.92;89.63;99080.03;5049280;28;20449;-39
2021/10/12 05:31:05;;;;;;;27.20;15.32;;;;;;;13.74;88.55;99077.56;5047423;28;20045;-39
2021/10/12 05:33:30;;;;;;;25.50;14.52;;;;;;;13.37;90.80;99080.63;5048551;28;20031;-39
2021/10/12 05:35:56;;;;;;;27.45;15.30;;;;;;;13.54;91.94;99081.47;5047122;28;20384;-39
2021/10/12 05:38:22;;;;;;;36.67;18.15;;;;;;;14.39;88.96;99090.44;5048291;28;20070;-39
2021/10/12 05:40:48;;;;;;;34.45;15.88;;;;;;;13.75;89.34;99092.56;5048721;28;20021;-39
2021/10/12 05:43:14;;;;;;;24.85;15.13;;;;;;;13.33;90.62;99085.63;5049323;28;20033;-39
2021/10/12 05:45:40;;;;;;;53.33;33.35;;;;;;;13.09;91.46;99088.31;5050258;28;20056;-39
2021/10/12 05:48:07;;;;;;;35.65;21.27;;;;;;;13.24;93.09;99095.03;5048647;28;20025;-38
2021/10/12 05:50:36;;;;;;;48.35;28.63;;;;;;;13.45;92.38;99090.94;5049487;28;20053;-38
2021/10/12 05:58:14;;;;;;;28.25;16.15;;;;;;;13.69;89.79;99089.78;5046445;28;20081;-39
2021/10/12 06:00:40;;;;;;;27.10;16.08;;;;;;;13.47;90.30;99094.97;5048252;28;20024;-39
2021/10/12 06:03:05;;;;;;;30.08;16.55;;;;;;;13.28;91.66;99080.94;5049682;28;20021;-39
2021/10/12 06:05:31;;;;;;;30.92;17.27;;;;;;;13.40;91.63;99101.50;5049681;28;20045;-40
2021/10/12 06:07:56;;;;;;;34.42;18.15;;;;;;;13.38;91.55;99101.75;5049797;28;20028;-39
2021/10/12 06:10:21;;;;;;;33.65;17.77;;;;;;;13.41;92.19;99095.94;5049319;28;20028;-39
2021/10/12 06:12:47;;;;;;;33.20;18.25;;;;;;;13.43;92.10;99099.19;5049139;28;20017;-39
2021/10/12 06:15:12;;;;;;;29.25;17.05;;;;;;;13.57;91.31;99088.19;5046682;28;20430;-39
2021/10/12 06:17:38;;;;;;;31.20;17.00;;;;;;;13.66;90.99;99089.44;5049427;28;20044;-39
2021/10/12 06:20:04;;;;;;;51.97;29.48;;;;;;;13.61;91.50;99086.66;5049512;28;20591;-39
2021/10/12 06:22:29;;;;;;;45.63;24.92;;;;;;;13.65;90.94;99079.78;5049196;28;20120;-39
2021/10/12 06:24:55;;;;;;;30.05;16.98;;;;;;;13.77;90.16;99087.78;5047977;28;20070;-39
2021/10/12 06:27:21;;;;;;;26.70;15.48;;;;;;;13.54;91.41;99096.72;5049401;28;20032;-39
2021/10/12 06:29:46;;;;;;;27.70;15.77;;;;;;;13.62;90.95;99099.81;5049748;28;20032;-39
2021/10/12 06:32:12;;;;;;;26.85;14.05;;;;;;;13.71;90.63;99097.56;5049289;28;20047;-38
2021/10/12 06:34:37;;;;;;;25.00;14.68;;;;;;;13.85;89.62;99090.84;5049484;28;20021;-38
2021/10/12 06:37:03;;;;;;;27.00;14.00;;;;;;;13.74;90.23;99091.72;5053407;28;20044;-39
2021/10/12 06:39:28;;;;;;;24.73;13.68;;;;;;;13.71;91.36;99094.91;5065404;28;20028;-39
2021/10/12 06:41:54;;;;;;;23.92;13.23;;;;;;;13.74;90.46;99089.06;5056430;28;20036;-40
2021/10/12 06:44:19;;;;;;;24.15;13.00;;;;;;;13.68;90.53;99090.81;5060795;28;20044;-39
2021/10/12 06:46:45;;;;;;;20.35;11.75;;;;;;;13.66;90.44;99090.25;5052917;28;20119;-38
2021/10/12 06:49:11;;;;;;;20.38;11.50;;;;;;;13.69;91.32;99094.31;5052766;28;20078;-40
2021/10/12 06:51:36;;;;;;;21.80;12.25;;;;;;;13.71;91.24;99094.06;5052508;28;20028;-39
2021/10/12 06:54:02;;;;;;;21.63;12.38;;;;;;;13.92;91.21;99098.75;5052329;28;20464;-39
2021/10/12 06:56:27;;;;;;;23.25;12.85;;;;;;;13.94;90.56;99088.63;5052304;28;20460;-39
2021/10/12 06:58:53;;;;;;;20.27;11.98;;;;;;;13.98;90.32;99087.06;5052411;28;20033;-39
2021/10/12 07:01:18;;;;;;;20.33;11.73;;;;;;;14.08;90.34;99084.56;5052301;28;20021;-40
2021/10/12 07:03:44;;;;;;;18.90;11.25;;;;;;;14.30;89.26;99091.88;5052164;28;20033;-38
2021/10/12 07:06:09;;;;;;;18.00;11.52;;;;;;;14.35;89.48;99091.13;5052160;28;20044;-40
2021/10/12 07:08:35;;;;;;;24.27;14.05;;;;;;;14.54;89.04;99083.66;5052160;28;20086;-40
2021/10/12 07:11:00;;;;;;;20.88;12.90;;;;;;;14.59;88.01;99086.47;5051765;28;20469;-39
2021/10/12 07:13:29;;;;;;;20.23;12.10;;;;;;;14.54;89.06;99087.16;5051975;28;20029;-39
2021/10/12 07:15:56;;;;;;;19.77;11.32;;;;;;;14.57;88.32;99088.56;5051636;28;20040;-39
2021/10/12 07:18:21;;;;;;;17.95;11.10;;;;;;;14.63;88.29;99090.25;5050831;28;20064;-39
2021/10/12 07:20:47;;;;;;;16.95;11.10;;;;;;;14.53;89.04;99090.91;5051342;28;20021;-39
2021/10/12 07:23:12;;;;;;;15.77;10.93;;;;;;;14.72;88.33;99088.78;5051507;28;20040;-38
2021/10/12 07:25:38;;;;;;;16.90;10.32;;;;;;;14.86;87.80;99083.88;5051654;28;20033;-38
2021/10/12 07:28:04;;;;;;;15.52;10.70;;;;;;;14.90;87.66;99079.66;5051737;28;20039;-39
2021/10/12 07:30:29;;;;;;;14.18;9.60;;;;;;;14.95;87.04;99086.94;5051927;28;20048;-39
2021/10/12 07:32:54;;;;;;;15.43;10.43;;;;;;;14.90;87.59;99098.41;5052098;28;20115;-39
2021/10/12 07:35:20;;;;;;;13.45;9.15;;;;;;;14.92;87.49;99103.50;5051992;28;20029;-39
2021/10/12 07:37:45;;;;;;;12.68;8.95;;;;;;;15.08;86.10;99108.03;5051888;28;20451;-39
2021/10/12 07:40:11;;;;;;;12.60;8.38;;;;;;;15.00;86.60;99105.75;5051909;28;20469;-38
2021/10/12 07:42:37;;;;;;;12.50;8.57;;;;;;;14.79;86.53;99100.16;5051774;28;20044;-38
2021/10/12 07:45:03;;;;;;;13.38;8.75;;;;;;;14.85;87.56;99090.31;5051597;28;20028;-38
2021/10/12 07:47:28;;;;;;;14.23;9.27;;;;;;;14.68;88.26;99097.53;5050229;28;20117;-38
2021/10/12 07:49:54;;;;;;;18.00;10.23;;;;;;;14.80;87.43;99099.06;5051438;28;20025;-38
2021/10/12 07:52:19;;;;;;;15.52;9.77;;;;;;;15.10;87.83;99092.50;5052261;28;20025;-38
2021/10/12 07:54:51;;;;;;;16.08;7.60;;;;;;;16.41;85.95;99093.31;5053066;28;20025;-39
2021/10/12 07:57:17;;;;;;;10.40;6.93;;;;;;;16.99;79.78;99095.28;5053377;28;20036;-38
2021/10/12 07:59:43;;;;;;;8.90;6.53;;;;;;;17.48;77.36;99088.78;5052694;28;20170;-39
2021/10/12 08:02:12;;;;;;;8.75;6.00;;;;;;;17.75;74.44;99083.97;5052036;28;20095;-39
2021/10/12 08:04:38;;;;;;;8.90;6.22;;;;;;;18.10;75.47;99095.06;5051943;28;20480;-39
2021/10/12 08:07:04;;;;;;;8.45;6.32;;;;;;;18.39;73.02;99083.75;5052195;28;20090;-38
2021/10/12 08:09:29;;;;;;;8.88;6.60;;;;;;;18.73;71.16;99086.66;5051644;28;20036;-38
2021/10/12 08:11:56;;;;;;;10.05;6.32;;;;;;;18.63;72.10;99079.41;5051623;28;20037;-38
2021/10/12 08:14:23;;;;;;;8.20;6.07;;;;;;;18.91;71.35;99071.84;5051572;28;20033;-38
2021/10/12 08:16:49;;;;;;;8.30;6.18;;;;;;;18.97;68.72;99072.63;5052165;28;20029;-38
2021/10/12 08:19:14;;;;;;;9.77;6.55;;;;;;;18.64;70.95;99072.13;5051005;28;20031;-38
2021/10/12 08:21:40;;;;;;;9.40;7.30;;;;;;;18.91;68.55;99069.94;5050343;28;20094;-38
2021/10/12 08:24:05;;;;;;;10.00;7.45;;;;;;;18.96;68.26;99061.03;5051318;28;20033;-38
2021/10/12 08:26:31;;;;;;;9.70;7.85;;;;;;;18.58;68.57;99063.25;5051389;28;20025;-38
2021/10/12 08:28:56;;;;;;;10.57;7.97;;;;;;;18.69;68.52;99059.44;5050456;28;20056;-38
2021/10/12 08:31:22;;;;;;;14.82;8.65;;;;;;;18.60;68.65;99058.41;5051237;28;20072;-38
2021/10/12 08:33:48;;;;;;;9.57;7.45;;;;;;;18.44;69.36;99054.94;5051084;28;20036;-39
2021/10/12 08:36:14;;;;;;;9.90;6.80;;;;;;;18.20;70.12;99057.41;5051136;28;20125;-38
2021/10/12 08:38:40;;;;;;;8.68;6.47;;;;;;;17.70;71.85;99048.97;5049421;28;20408;-39
2021/10/12 08:41:06;;;;;;;7.40;6.25;;;;;;;17.85;71.32;99056.28;5051003;28;20561;-38
2021/10/12 08:43:33;;;;;;;8.60;6.60;;;;;;;18.17;70.34;99058.72;5051236;28;20087;-39
2021/10/12 08:45:59;;;;;;;7.20;5.78;;;;;;;17.87;71.48;99058.72;5050631;28;20078;-38
2021/10/12 08:48:25;;;;;;;7.97;5.85;;;;;;;18.11;70.63;99050.94;5049086;28;20095;-38
2021/10/12 08:50:50;;;;;;;7.28;5.97;;;;;;;18.33;69.90;99042.56;5050689;28;20097;-38
2021/10/12 08:53:16;;;;;;;5.95;5.10;;;;;;;17.74;71.46;99033.94;5050704;28;20527;-38
2021/10/12 08:55:41;;;;;;;5.80;5.07;;;;;;;17.17;73.28;99029.50;5050886;28;20025;-38
2021/10/12 08:58:06;;;;;;;7.63;5.22;;;;;;;17.08;72.88;99033.78;5032375;28;20032;-38
2021/10/12 09:00:32;;;;;;;5.82;5.03;;;;;;;16.67;75.91;99041.63;5050550;28;20021;-39
2021/10/12 09:03:17;;;;;;;5.45;4.93;;;;;;;16.70;75.10;99039.22;5051181;28;20032;-39
2021/10/12 09:05:59;;;;;;;5.43;4.38;;;;;;;16.90;73.59;99029.66;5050663;28;20389;-39
2021/10/12 09:08:39;;;;;;;4.85;3.58;;;;;;;16.53;75.55;99033.22;5050912;28;20480;-39
2021/10/12 09:11:20;;;;;;;4.57;3.60;;;;;;;16.50;75.91;99031.03;5050528;28;20029;-38
2021/10/12 09:13:47;;;;;;;5.80;3.50;;;;;;;16.80;75.31;99031.22;5050697;28;20472;-38
2021/10/12 09:16:16;;;;;;;5.88;4.85;;;;;;;16.55;75.31;99025.72;5050951;28;20032;-38
2021/10/12 09:18:51;;;;;;;8.15;5.60;;;;;;;16.82;73.95;99022.91;5050785;28;20032;-38
2021/10/12 09:21:40;;;;;;;7.68;4.47;;;;;;;17.07;73.75;99019.53;5051103;28;20041;-38
2021/10/12 09:24:08;;;;;;;5.63;3.40;;;;;;;16.39;75.00;99011.38;5046538;28;20048;-38
2021/10/12 09:26:35;;;;;;;5.72;4.30;;;;;;;16.47;75.22;99018.13;5049946;28;20028;-38
2021/10/12 09:29:03;;;;;;;7.57;3.95;;;;;;;15.90;76.46;99015.06;5050832;28;20501;-38
2021/10/12 09:31:30;;;;;;;4.43;3.80;;;;;;;15.91;76.91;99018.56;5050943;28;20076;-38
2021/10/12 09:33:55;;;;;;;4.60;3.80;;;;;;;16.32;74.88;99011.63;5050858;28;20029;-38
2021/10/12 09:36:28;;;;;;;4.93;4.25;;;;;;;16.36;73.82;99020.75;5050647;28;20036;-39
2021/10/12 09:38:54;;;;;;;7.00;5.20;;;;;;;16.21;75.40;99010.72;5050254;28;20198;-39
2021/10/12 09:41:23;;;;;;;7.20;5.13;;;;;;;15.94;75.34;99018.84;5049988;28;20045;-38
2021/10/12 09:43:49;;;;;;;7.18;4.85;;;;;;;15.86;75.58;99018.50;5048396;28;20036;-38
2021/10/12 09:46:28;;;;;;;10.13;4.80;;;;;;;15.91;75.42;99013.19;5048532;28;20029;-38
2021/10/12 09:48:54;;;;;;;6.95;4.65;;;;;;;15.53;77.59;99010.41;5048391;28;20029;-38
2021/10/12 09:51:20;;;;;;;7.75;4.68;;;;;;;15.91;75.52;99008.63;5047756;28;20386;-38
2021/10/12 09:53:46;;;;;;;18.17;12.90;;;;;;;15.89;76.12;99008.06;5048152;28;20024;-38
2021/10/12 09:56:12;;;;;;;8.40;6.32;;;;;;;16.08;74.76;99005.00;5048207;28;20496;-39
2021/10/12 09:58:38;;;;;;;6.60;4.70;;;;;;;15.90;76.12;99004.34;5048115;28;20017;-39
2021/10/12 10:01:08;;;;;;;7.85;4.43;;;;;;;16.23;73.63;98999.72;5048345;28;20031;-38
2021/10/12 10:03:33;;;;;;;6.78;4.90;;;;;;;16.03;74.64;98995.84;5048165;28;20017;-39
2021/10/12 10:06:09;;;;;;;6.57;4.00;;;;;;;15.96;74.00;98991.78;5048323;28;20104;-38
2021/10/12 10:08:39;;;;;;;5.22;3.33;;;;;;;15.68;75.00;98988.28;5049742;28;20033;-38
2021/10/12 10:11:06;;;;;;;5.53;3.22;;;;;;;15.43;75.28;98997.72;5050977;28;20024;-39
2021/10/12 10:13:33;;;;;;;6.57;3.42;;;;;;;15.54;75.79;98979.84;5054247;28;20021;-39
2021/10/12 10:15:59;;;;;;;5.03;3.00;;;;;;;15.14;75.79;98975.72;5052828;28;20078;-38
2021/10/12 10:18:24;;;;;;;4.80;2.60;;;;;;;14.98;76.49;98976.59;5054052;28;20024;-38
2021/10/12 10:20:51;;;;;;;5.20;3.00;;;;;;;14.90;76.90;98977.06;5035960;28;20400;-39
2021/10/12 10:23:53;;;;;;;4.15;2.50;;;;;;;14.60;78.25;98970.25;5054087;28;20027;-37
2021/10/12 10:26:28;;;;;;;3.88;2.85;;;;;;;14.47;78.45;98969.53;5042316;28;20041;-37
2021/10/12 10:28:55;;;;;;;5.95;2.95;;;;;;;14.63;78.47;98967.88;5053748;28;20210;-40
2021/10/12 10:31:40;;;;;;;4.20;3.10;;;;;;;14.26;80.35;98964.97;5053896;28;20110;-42
2021/10/12 10:34:27;;;;;;;4.03;2.83;;;;;;;14.56;80.38;98961.88;5053799;28;20047;-40
2021/10/12 10:37:17;;;;;;;4.25;3.03;;;;;;;15.13;78.24;98955.31;5053917;28;20016;-40
2021/10/12 10:39:57;;;;;;;3.50;2.63;;;;;;;15.08;79.31;98944.56;5053572;28;20059;-40
2021/10/12 10:42:25;;;;;;;2.83;2.25;;;;;;;14.79;78.40;98947.47;5053705;28;20021;-40
2021/10/12 10:45:07;;;;;;;3.85;2.55;;;;;;;14.99;77.52;98951.44;5053645;28;20025;-40
2021/10/12 10:47:41;;;;;;;3.80;2.50;;;;;;;15.02;77.59;98942.88;5053456;28;20094;-40
2021/10/12 10:50:09;;;;;;;5.10;2.70;;;;;;;15.28;76.75;98943.16;5053570;28;20167;-40
2021/10/12 10:52:51;;;;;;;3.75;2.40;;;;;;;15.47;75.80;98946.28;5053191;28;20108;-40
2021/10/12 10:55:23;;;;;;;3.70;2.35;;;;;;;15.00;77.87;98935.13;5053162;28;20060;-39
2021/10/12 10:58:00;;;;;;;3.10;2.17;;;;;;;14.96;77.15;98933.97;5053040;28;20028;-39
2021/10/12 11:00:27;;;;;;;4.95;2.40;;;;;;;14.43;78.90;98930.94;5052213;28;20051;-39
2021/10/12 11:02:54;;;;;;;3.53;2.30;;;;;;;14.11;79.98;98921.94;5053008;28;20080;-39
2021/10/12 11:05:39;;;;;;;2.95;2.30;;;;;;;14.56;78.45;98931.63;5051860;28;20025;-39
2021/10/12 11:08:20;;;;;;;2.80;2.40;;;;;;;14.52;78.76;98925.16;5052121;28;20091;-40
2021/10/12 11:10:47;;;;;;;3.53;2.40;;;;;;;14.68;77.46;98912.78;5052884;28;20485;-39
2021/10/12 11:13:27;;;;;;;2.95;2.45;;;;;;;14.27;79.07;98915.75;5053533;28;20032;-39
2021/10/12 11:15:53;;;;;;;3.20;2.60;;;;;;;14.36;79.09;98919.59;5053413;28;20032;-39
2021/10/12 11:18:18;;;;;;;4.45;2.80;;;;;;;14.46;77.84;98916.25;5053338;28;20275;-39
2021/10/12 11:20:50;;;;;;;6.25;2.78;;;;;;;14.18;78.97;98917.22;5053006;28;20052;-39
2021/10/12 11:23:36;;;;;;;4.88;2.90;;;;;;;14.16;78.73;98912.09;5052634;28;20411;-40
2021/10/12 11:26:11;;;;;;;5.28;2.80;;;;;;;13.97;79.96;98916.13;5052842;28;20112;-40